sensor_id;sensor_type;location;lat;lon;timestamp;temperature;humidity
11619;DHT22;5865;48.776;9.280;2024-02-16T00:02:15;7.70;99.90
11619;DHT22;5865;48.776;9.280;2024-02-16T00:09:39;8.00;99.90
11619;DHT22;5865;48.776;9.280;2024-02-16T00:12:07;8.00;99.90
11619;DHT22;5865;48.776;9.280;2024-02-16T00:19:29;8.10;99.90
11619;DHT22;5865;48.776;9.280;2024-02-16T00:24:25;8.10;99.90
11619;DHT22;5865;48.776;9.280;2024-02-16T00:34:14;8.00;99.90
11619;DHT22;5865;48.776;9.280;2024-02-16T00:39:10;8.00;99.90
11619;DHT22;5865;48.776;9.280;2024-02-16T00:44:05;7.90;99.90
11619;DHT22;5865;48.776;9.280;2024-02-16T00:46:35;7.90;99.90
11619;DHT22;5865;48.776;9.280;2024-02-16T00:53:56;7.90;99.90
11619;DHT22;5865;48.776;9.280;2024-02-16T01:01:20;8.10;99.90
11619;DHT22;5865;48.776;9.280;2024-02-16T01:11:12;8.30;99.90
11619;DHT22;5865;48.776;9.280;2024-02-16T01:16:08;8.30;99.90
11619;DHT22;5865;48.776;9.280;2024-02-16T01:23:29;8.50;99.90
11619;DHT22;5865;48.776;9.280;2024-02-16T01:30:52;8.70;99.90
11619;DHT22;5865;48.776;9.280;2024-02-16T01:33:22;8.60;99.90
11619;DHT22;5865;48.776;9.280;2024-02-16T01:40:46;8.70;99.90
11619;DHT22;5865;48.776;9.280;2024-02-16T01:43:19;8.70;99.90
11619;DHT22;5865;48.776;9.280;2024-02-16T01:45:47;8.70;99.90
11619;DHT22;5865;48.776;9.280;2024-02-16T01:48:14;8.70;99.90
11619;DHT22;5865;48.776;9.280;2024-02-16T01:50:59;8.80;99.90
11619;DHT22;5865;48.776;9.280;2024-02-16T01:53:40;8.80;99.90
11619;DHT22;5865;48.776;9.280;2024-02-16T01:56:08;8.80;99.90
11619;DHT22;5865;48.776;9.280;2024-02-16T01:58:37;8.70;99.90
11619;DHT22;5865;48.776;9.280;2024-02-16T02:01:05;8.70;99.90
11619;DHT22;5865;48.776;9.280;2024-02-16T02:06:06;8.80;99.90
11619;DHT22;5865;48.776;9.280;2024-02-16T02:13:42;8.70;99.90
11619;DHT22;5865;48.776;9.280;2024-02-16T02:16:10;8.80;99.90
11619;DHT22;5865;48.776;9.280;2024-02-16T02:18:37;8.90;99.90
11619;DHT22;5865;48.776;9.280;2024-02-16T02:21:06;8.90;99.90
11619;DHT22;5865;48.776;9.280;2024-02-16T02:23:34;9.00;99.90
11619;DHT22;5865;48.776;9.280;2024-02-16T02:26:15;9.10;99.90
11619;DHT22;5865;48.776;9.280;2024-02-16T02:28:56;9.10;99.90
11619;DHT22;5865;48.776;9.280;2024-02-16T02:31:37;9.00;99.90
11619;DHT22;5865;48.776;9.280;2024-02-16T02:34:11;9.10;99.90
11619;DHT22;5865;48.776;9.280;2024-02-16T02:36:40;9.00;99.90
11619;DHT22;5865;48.776;9.280;2024-02-16T02:39:29;9.10;99.90
11619;DHT22;5865;48.776;9.280;2024-02-16T02:42:10;9.00;99.90
11619;DHT22;5865;48.776;9.280;2024-02-16T02:47:20;9.00;99.90
11619;DHT22;5865;48.776;9.280;2024-02-16T02:52:17;9.00;99.90
11619;DHT22;5865;48.776;9.280;2024-02-16T02:55:02;9.00;99.90
11619;DHT22;5865;48.776;9.280;2024-02-16T02:57:43;9.00;99.90
11619;DHT22;5865;48.776;9.280;2024-02-16T03:00:15;9.00;99.90
11619;DHT22;5865;48.776;9.280;2024-02-16T03:02:56;8.90;99.90
11619;DHT22;5865;48.776;9.280;2024-02-16T03:05:23;8.90;99.90
11619;DHT22;5865;48.776;9.280;2024-02-16T03:07:50;8.90;99.90
11619;DHT22;5865;48.776;9.280;2024-02-16T03:10:20;8.80;99.90
11619;DHT22;5865;48.776;9.280;2024-02-16T03:12:49;8.80;99.90
11619;DHT22;5865;48.776;9.280;2024-02-16T03:15:17;8.80;99.90
11619;DHT22;5865;48.776;9.280;2024-02-16T03:22:56;8.70;99.90
11619;DHT22;5865;48.776;9.280;2024-02-16T03:29:17;8.80;99.90
11619;DHT22;5865;48.776;9.280;2024-02-16T03:36:55;8.70;99.90
11619;DHT22;5865;48.776;9.280;2024-02-16T03:41:51;8.70;99.90
11619;DHT22;5865;48.776;9.280;2024-02-16T03:49:38;8.70;99.90
11619;DHT22;5865;48.776;9.280;2024-02-16T04:00:06;8.80;99.90
11619;DHT22;5865;48.776;9.280;2024-02-16T04:05:08;8.80;99.90
11619;DHT22;5865;48.776;9.280;2024-02-16T04:07:36;8.80;99.90
11619;DHT22;5865;48.776;9.280;2024-02-16T04:10:04;8.90;99.90
11619;DHT22;5865;48.776;9.280;2024-02-16T04:12:39;9.10;99.90
11619;DHT22;5865;48.776;9.280;2024-02-16T04:15:09;9.30;99.90
11619;DHT22;5865;48.776;9.280;2024-02-16T04:20:19;9.50;99.90
11619;DHT22;5865;48.776;9.280;2024-02-16T04:22:46;9.60;99.90
11619;DHT22;5865;48.776;9.280;2024-02-16T04:25:27;9.50;99.90
11619;DHT22;5865;48.776;9.280;2024-02-16T04:30:28;9.70;99.90
11619;DHT22;5865;48.776;9.280;2024-02-16T04:32:55;9.70;99.90
11619;DHT22;5865;48.776;9.280;2024-02-16T04:35:22;9.80;99.90
11619;DHT22;5865;48.776;9.280;2024-02-16T04:37:51;9.70;99.90
11619;DHT22;5865;48.776;9.280;2024-02-16T04:40:36;9.50;99.90
11619;DHT22;5865;48.776;9.280;2024-02-16T04:43:04;9.60;99.90
11619;DHT22;5865;48.776;9.280;2024-02-16T04:45:40;9.50;99.90
11619;DHT22;5865;48.776;9.280;2024-02-16T04:48:09;9.50;99.90
11619;DHT22;5865;48.776;9.280;2024-02-16T04:50:50;9.50;99.90
11619;DHT22;5865;48.776;9.280;2024-02-16T04:55:46;9.50;99.90
11619;DHT22;5865;48.776;9.280;2024-02-16T04:58:16;9.60;99.90
11619;DHT22;5865;48.776;9.280;2024-02-16T05:00:45;9.50;99.90
11619;DHT22;5865;48.776;9.280;2024-02-16T05:06:07;9.40;99.90
11619;DHT22;5865;48.776;9.280;2024-02-16T05:11:02;9.40;99.90
11619;DHT22;5865;48.776;9.280;2024-02-16T05:16:25;9.40;99.90
11619;DHT22;5865;48.776;9.280;2024-02-16T05:18:57;9.50;99.90
11619;DHT22;5865;48.776;9.280;2024-02-16T05:23:59;9.60;99.90
11619;DHT22;5865;48.776;9.280;2024-02-16T05:29:21;9.60;99.90
11619;DHT22;5865;48.776;9.280;2024-02-16T05:35:10;9.60;99.90
11619;DHT22;5865;48.776;9.280;2024-02-16T05:37:43;9.60;99.90
11619;DHT22;5865;48.776;9.280;2024-02-16T05:40:24;9.50;99.90
11619;DHT22;5865;48.776;9.280;2024-02-16T05:42:55;9.40;99.90
11619;DHT22;5865;48.776;9.280;2024-02-16T05:45:36;9.50;99.90
11619;DHT22;5865;48.776;9.280;2024-02-16T05:48:07;9.40;99.90
11619;DHT22;5865;48.776;9.280;2024-02-16T05:50:37;9.40;99.90
11619;DHT22;5865;48.776;9.280;2024-02-16T05:55:32;9.30;99.90
11619;DHT22;5865;48.776;9.280;2024-02-16T06:00:32;9.40;99.90
11619;DHT22;5865;48.776;9.280;2024-02-16T06:03:00;9.40;99.90
11619;DHT22;5865;48.776;9.280;2024-02-16T06:07:55;9.30;99.90
11619;DHT22;5865;48.776;9.280;2024-02-16T06:10:24;9.20;99.90
11619;DHT22;5865;48.776;9.280;2024-02-16T06:12:51;9.10;99.90
11619;DHT22;5865;48.776;9.280;2024-02-16T06:15:18;9.20;99.90
11619;DHT22;5865;48.776;9.280;2024-02-16T06:25:13;9.20;99.90
11619;DHT22;5865;48.776;9.280;2024-02-16T06:30:08;9.20;99.90
11619;DHT22;5865;48.776;9.280;2024-02-16T06:32:38;9.30;99.90
11619;DHT22;5865;48.776;9.280;2024-02-16T06:35:07;9.30;99.90
11619;DHT22;5865;48.776;9.280;2024-02-16T06:37:34;9.30;99.90
11619;DHT22;5865;48.776;9.280;2024-02-16T06:40:03;9.30;99.90
11619;DHT22;5865;48.776;9.280;2024-02-16T06:42:31;9.30;99.90
11619;DHT22;5865;48.776;9.280;2024-02-16T06:45:18;9.30;99.90
11619;DHT22;5865;48.776;9.280;2024-02-16T08:09:44;9.30;99.90
11619;DHT22;5865;48.776;9.280;2024-02-16T08:22:07;10.00;99.90
11619;DHT22;5865;48.776;9.280;2024-02-16T08:27:03;10.50;99.90
11619;DHT22;5865;48.776;9.280;2024-02-16T08:49:16;13.60;99.90
11619;DHT22;5865;48.776;9.280;2024-02-16T09:01:43;13.70;99.90
11619;DHT22;5865;48.776;9.280;2024-02-16T09:48:54;16.20;99.90
11619;DHT22;5865;48.776;9.280;2024-02-16T10:08:49;16.90;99.90
11619;DHT22;5865;48.776;9.280;2024-02-16T10:19:05;17.70;99.90
11619;DHT22;5865;48.776;9.280;2024-02-16T10:24:01;17.60;99.90
11619;DHT22;5865;48.776;9.280;2024-02-16T10:36:32;19.60;99.90
11619;DHT22;5865;48.776;9.280;2024-02-16T10:41:33;19.80;99.90
11619;DHT22;5865;48.776;9.280;2024-02-16T10:51:43;19.20;99.90
11619;DHT22;5865;48.776;9.280;2024-02-16T10:54:13;19.10;99.90
11619;DHT22;5865;48.776;9.280;2024-02-16T10:59:10;19.00;99.90
11619;DHT22;5865;48.776;9.280;2024-02-16T11:01:44;19.00;99.90
11619;DHT22;5865;48.776;9.280;2024-02-16T11:04:15;19.10;99.90
11619;DHT22;5865;48.776;9.280;2024-02-16T11:16:53;19.30;99.90
11619;DHT22;5865;48.776;9.280;2024-02-16T11:39:28;18.90;99.90
11619;DHT22;5865;48.776;9.280;2024-02-16T13:43:08;18.10;99.90
11619;DHT22;5865;48.776;9.280;2024-02-16T13:45:48;17.90;99.90
11619;DHT22;5865;48.776;9.280;2024-02-16T13:48:16;18.30;99.90
11619;DHT22;5865;48.776;9.280;2024-02-16T13:50:45;18.30;99.90
11619;DHT22;5865;48.776;9.280;2024-02-16T13:53:13;18.20;99.90
11619;DHT22;5865;48.776;9.280;2024-02-16T13:55:41;18.20;99.90
11619;DHT22;5865;48.776;9.280;2024-02-16T13:58:08;18.10;99.90
11619;DHT22;5865;48.776;9.280;2024-02-16T14:00:37;18.00;99.90
11619;DHT22;5865;48.776;9.280;2024-02-16T14:03:06;18.00;99.90
11619;DHT22;5865;48.776;9.280;2024-02-16T14:05:36;17.90;99.90
11619;DHT22;5865;48.776;9.280;2024-02-16T14:08:05;17.80;99.90
11619;DHT22;5865;48.776;9.280;2024-02-16T14:10:33;17.80;99.90
11619;DHT22;5865;48.776;9.280;2024-02-16T14:13:00;17.80;99.90
11619;DHT22;5865;48.776;9.280;2024-02-16T14:15:27;17.80;99.90
11619;DHT22;5865;48.776;9.280;2024-02-16T14:17:54;17.70;99.90
11619;DHT22;5865;48.776;9.280;2024-02-16T14:20:21;17.70;99.90
11619;DHT22;5865;48.776;9.280;2024-02-16T14:22:48;17.70;99.90
11619;DHT22;5865;48.776;9.280;2024-02-16T14:25:16;17.70;99.90
11619;DHT22;5865;48.776;9.280;2024-02-16T14:27:44;17.60;99.90
11619;DHT22;5865;48.776;9.280;2024-02-16T14:30:12;17.60;99.90
11619;DHT22;5865;48.776;9.280;2024-02-16T14:32:39;17.50;99.90
11619;DHT22;5865;48.776;9.280;2024-02-16T14:35:07;17.30;99.90
11619;DHT22;5865;48.776;9.280;2024-02-16T14:37:35;17.30;99.90
11619;DHT22;5865;48.776;9.280;2024-02-16T14:40:02;17.20;99.90
11619;DHT22;5865;48.776;9.280;2024-02-16T14:42:32;17.10;99.90
11619;DHT22;5865;48.776;9.280;2024-02-16T14:44:59;17.10;99.90
11619;DHT22;5865;48.776;9.280;2024-02-16T14:47:26;17.30;99.90
11619;DHT22;5865;48.776;9.280;2024-02-16T14:49:53;17.50;99.90
11619;DHT22;5865;48.776;9.280;2024-02-16T14:52:19;17.50;99.90
11619;DHT22;5865;48.776;9.280;2024-02-16T14:54:46;17.50;99.90
11619;DHT22;5865;48.776;9.280;2024-02-16T14:57:13;17.70;99.90
11619;DHT22;5865;48.776;9.280;2024-02-16T14:59:47;17.60;99.90
11619;DHT22;5865;48.776;9.280;2024-02-16T15:02:14;17.60;99.90
11619;DHT22;5865;48.776;9.280;2024-02-16T15:04:41;17.50;99.90
11619;DHT22;5865;48.776;9.280;2024-02-16T15:07:08;17.40;99.90
11619;DHT22;5865;48.776;9.280;2024-02-16T15:09:36;17.30;99.90
11619;DHT22;5865;48.776;9.280;2024-02-16T15:12:04;17.20;99.90
11619;DHT22;5865;48.776;9.280;2024-02-16T15:14:32;17.20;99.90
11619;DHT22;5865;48.776;9.280;2024-02-16T15:17:01;17.10;99.90
11619;DHT22;5865;48.776;9.280;2024-02-16T15:19:28;16.90;99.90
11619;DHT22;5865;48.776;9.280;2024-02-16T15:21:55;16.90;99.90
11619;DHT22;5865;48.776;9.280;2024-02-16T15:24:22;16.80;99.90
11619;DHT22;5865;48.776;9.280;2024-02-16T15:26:49;16.80;99.90
11619;DHT22;5865;48.776;9.280;2024-02-16T15:29:16;16.60;99.90
11619;DHT22;5865;48.776;9.280;2024-02-16T15:31:43;16.50;99.90
11619;DHT22;5865;48.776;9.280;2024-02-16T15:34:11;16.60;99.90
11619;DHT22;5865;48.776;9.280;2024-02-16T15:36:39;16.60;99.90
11619;DHT22;5865;48.776;9.280;2024-02-16T15:39:06;16.60;99.90
11619;DHT22;5865;48.776;9.280;2024-02-16T15:41:34;16.60;99.90
11619;DHT22;5865;48.776;9.280;2024-02-16T15:44:02;16.60;99.90
11619;DHT22;5865;48.776;9.280;2024-02-16T15:46:29;16.60;99.90
11619;DHT22;5865;48.776;9.280;2024-02-16T15:48:56;16.50;99.90
11619;DHT22;5865;48.776;9.280;2024-02-16T15:51:24;16.50;99.90
11619;DHT22;5865;48.776;9.280;2024-02-16T15:53:52;16.40;99.90
11619;DHT22;5865;48.776;9.280;2024-02-16T15:56:19;16.40;99.90
11619;DHT22;5865;48.776;9.280;2024-02-16T15:58:46;16.30;99.90
11619;DHT22;5865;48.776;9.280;2024-02-16T16:01:13;16.30;99.90
11619;DHT22;5865;48.776;9.280;2024-02-16T16:03:40;16.30;99.90
11619;DHT22;5865;48.776;9.280;2024-02-16T16:06:08;16.20;99.90
11619;DHT22;5865;48.776;9.280;2024-02-16T16:08:37;16.20;99.90
11619;DHT22;5865;48.776;9.280;2024-02-16T16:11:06;16.10;99.90
11619;DHT22;5865;48.776;9.280;2024-02-16T16:13:33;16.10;99.90
11619;DHT22;5865;48.776;9.280;2024-02-16T16:16:01;16.00;99.90
11619;DHT22;5865;48.776;9.280;2024-02-16T16:18:28;15.90;99.90
11619;DHT22;5865;48.776;9.280;2024-02-16T16:20:59;15.90;99.90
11619;DHT22;5865;48.776;9.280;2024-02-16T16:23:26;15.80;99.90
11619;DHT22;5865;48.776;9.280;2024-02-16T16:25:55;15.80;99.90
11619;DHT22;5865;48.776;9.280;2024-02-16T16:28:22;15.70;99.90
11619;DHT22;5865;48.776;9.280;2024-02-16T16:30:50;15.70;99.90
11619;DHT22;5865;48.776;9.280;2024-02-16T16:33:16;15.60;99.90
11619;DHT22;5865;48.776;9.280;2024-02-16T16:35:43;15.60;99.90
11619;DHT22;5865;48.776;9.280;2024-02-16T16:38:11;16.60;99.90
11619;DHT22;5865;48.776;9.280;2024-02-16T16:40:38;15.50;99.90
11619;DHT22;5865;48.776;9.280;2024-02-16T16:43:06;15.50;99.90
11619;DHT22;5865;48.776;9.280;2024-02-16T16:45:33;15.40;99.90
11619;DHT22;5865;48.776;9.280;2024-02-16T16:48:00;15.30;99.90
11619;DHT22;5865;48.776;9.280;2024-02-16T16:50:27;15.30;99.90
11619;DHT22;5865;48.776;9.280;2024-02-16T16:52:54;15.20;99.90
11619;DHT22;5865;48.776;9.280;2024-02-16T16:55:21;15.20;99.90
11619;DHT22;5865;48.776;9.280;2024-02-16T16:57:48;15.20;99.90
11619;DHT22;5865;48.776;9.280;2024-02-16T17:00:17;15.10;99.90
11619;DHT22;5865;48.776;9.280;2024-02-16T17:02:44;15.10;99.90
11619;DHT22;5865;48.776;9.280;2024-02-16T17:05:11;15.10;99.90
11619;DHT22;5865;48.776;9.280;2024-02-16T17:07:38;15.10;99.90
11619;DHT22;5865;48.776;9.280;2024-02-16T17:10:06;15.00;99.90
11619;DHT22;5865;48.776;9.280;2024-02-16T17:12:33;14.90;99.90
11619;DHT22;5865;48.776;9.280;2024-02-16T17:15:00;14.90;99.90
11619;DHT22;5865;48.776;9.280;2024-02-16T17:17:29;14.80;99.90
11619;DHT22;5865;48.776;9.280;2024-02-16T17:19:58;14.70;99.90
11619;DHT22;5865;48.776;9.280;2024-02-16T17:22:25;14.70;99.90
11619;DHT22;5865;48.776;9.280;2024-02-16T17:24:52;14.60;99.90
11619;DHT22;5865;48.776;9.280;2024-02-16T17:27:19;14.50;99.90
11619;DHT22;5865;48.776;9.280;2024-02-16T17:29:48;14.50;99.90
11619;DHT22;5865;48.776;9.280;2024-02-16T17:32:15;14.40;99.90
11619;DHT22;5865;48.776;9.280;2024-02-16T17:34:43;14.30;99.90
11619;DHT22;5865;48.776;9.280;2024-02-16T17:37:10;14.30;99.90
11619;DHT22;5865;48.776;9.280;2024-02-16T17:39:37;14.20;99.90
11619;DHT22;5865;48.776;9.280;2024-02-16T17:42:04;14.20;99.90
11619;DHT22;5865;48.776;9.280;2024-02-16T17:44:32;14.20;99.90
11619;DHT22;5865;48.776;9.280;2024-02-16T17:46:59;14.20;99.90
11619;DHT22;5865;48.776;9.280;2024-02-16T17:49:26;14.20;99.90
11619;DHT22;5865;48.776;9.280;2024-02-16T17:51:54;14.10;99.90
11619;DHT22;5865;48.776;9.280;2024-02-16T17:54:21;14.00;99.90
11619;DHT22;5865;48.776;9.280;2024-02-16T17:56:48;13.60;99.90
11619;DHT22;5865;48.776;9.280;2024-02-16T18:01:42;13.10;99.90
11619;DHT22;5865;48.776;9.280;2024-02-16T18:04:10;12.90;99.90
11619;DHT22;5865;48.776;9.280;2024-02-16T18:06:37;12.70;99.90
11619;DHT22;5865;48.776;9.280;2024-02-16T18:09:08;12.50;99.90
11619;DHT22;5865;48.776;9.280;2024-02-16T18:11:36;12.50;99.90
11619;DHT22;5865;48.776;9.280;2024-02-16T18:14:03;12.50;99.90
11619;DHT22;5865;48.776;9.280;2024-02-16T18:16:29;12.30;99.90
11619;DHT22;5865;48.776;9.280;2024-02-16T18:18:56;12.20;99.90
11619;DHT22;5865;48.776;9.280;2024-02-16T18:21:25;12.20;99.90
11619;DHT22;5865;48.776;9.280;2024-02-16T18:23:51;12.20;99.90
11619;DHT22;5865;48.776;9.280;2024-02-16T18:26:20;12.20;99.90
11619;DHT22;5865;48.776;9.280;2024-02-16T18:28:47;12.20;99.90
11619;DHT22;5865;48.776;9.280;2024-02-16T18:31:14;12.20;99.90
11619;DHT22;5865;48.776;9.280;2024-02-16T18:33:41;12.20;99.90
11619;DHT22;5865;48.776;9.280;2024-02-16T18:36:08;12.10;99.90
11619;DHT22;5865;48.776;9.280;2024-02-16T18:38:35;12.20;99.90
11619;DHT22;5865;48.776;9.280;2024-02-16T18:41:03;12.20;99.90
11619;DHT22;5865;48.776;9.280;2024-02-16T18:43:31;12.20;99.90
11619;DHT22;5865;48.776;9.280;2024-02-16T18:45:58;12.10;99.90
11619;DHT22;5865;48.776;9.280;2024-02-16T18:48:25;12.20;99.90
11619;DHT22;5865;48.776;9.280;2024-02-16T18:50:52;12.20;99.90
11619;DHT22;5865;48.776;9.280;2024-02-16T18:53:19;12.10;99.90
11619;DHT22;5865;48.776;9.280;2024-02-16T18:55:47;12.00;99.90
11619;DHT22;5865;48.776;9.280;2024-02-16T18:58:15;12.00;99.90
11619;DHT22;5865;48.776;9.280;2024-02-16T19:00:44;12.00;99.90
11619;DHT22;5865;48.776;9.280;2024-02-16T19:03:11;12.00;99.90
11619;DHT22;5865;48.776;9.280;2024-02-16T19:05:38;12.00;99.90
11619;DHT22;5865;48.776;9.280;2024-02-16T19:08:05;12.10;99.90
11619;DHT22;5865;48.776;9.280;2024-02-16T19:10:32;12.10;99.90
11619;DHT22;5865;48.776;9.280;2024-02-16T19:12:59;12.00;99.90
11619;DHT22;5865;48.776;9.280;2024-02-16T19:15:26;12.10;99.90
11619;DHT22;5865;48.776;9.280;2024-02-16T19:17:59;12.10;99.90
11619;DHT22;5865;48.776;9.280;2024-02-16T19:20:26;12.10;99.90
11619;DHT22;5865;48.776;9.280;2024-02-16T19:22:53;12.20;99.90
11619;DHT22;5865;48.776;9.280;2024-02-16T19:25:20;12.10;99.90
11619;DHT22;5865;48.776;9.280;2024-02-16T19:27:48;12.10;99.90
11619;DHT22;5865;48.776;9.280;2024-02-16T19:30:16;12.00;99.90
11619;DHT22;5865;48.776;9.280;2024-02-16T19:53:08;11.90;99.90
11619;DHT22;5865;48.776;9.280;2024-02-16T20:03:00;12.00;99.90
11619;DHT22;5865;48.776;9.280;2024-02-16T20:37:38;11.90;99.90
11619;DHT22;5865;48.776;9.280;2024-02-16T20:42:33;11.90;99.90
11619;DHT22;5865;48.776;9.280;2024-02-16T20:45:00;11.90;99.90
11619;DHT22;5865;48.776;9.280;2024-02-16T20:47:27;11.90;99.90
11619;DHT22;5865;48.776;9.280;2024-02-16T20:52:27;12.00;99.90
11619;DHT22;5865;48.776;9.280;2024-02-16T20:54:54;12.00;99.90
11619;DHT22;5865;48.776;9.280;2024-02-16T20:57:22;11.90;99.90
11619;DHT22;5865;48.776;9.280;2024-02-16T21:02:16;12.00;99.90
11619;DHT22;5865;48.776;9.280;2024-02-16T21:09:39;11.90;99.90
11619;DHT22;5865;48.776;9.280;2024-02-16T21:12:06;11.90;99.90
11619;DHT22;5865;48.776;9.280;2024-02-16T21:19:28;11.70;99.90
11619;DHT22;5865;48.776;9.280;2024-02-16T21:24:24;11.70;99.90
11619;DHT22;5865;48.776;9.280;2024-02-16T21:26:51;11.70;99.90
11619;DHT22;5865;48.776;9.280;2024-02-16T21:31:46;11.60;99.90
11619;DHT22;5865;48.776;9.280;2024-02-16T21:39:08;11.50;99.90
11619;DHT22;5865;48.776;9.280;2024-02-16T21:41:37;11.50;99.90
11619;DHT22;5865;48.776;9.280;2024-02-16T21:44:04;11.50;99.90
11619;DHT22;5865;48.776;9.280;2024-02-16T21:46:32;11.40;99.90
11619;DHT22;5865;48.776;9.280;2024-02-16T21:49:02;11.40;99.90
11619;DHT22;5865;48.776;9.280;2024-02-16T21:51:29;11.40;99.90
11619;DHT22;5865;48.776;9.280;2024-02-16T21:53:58;11.40;99.90
